createdAt,value
2022-11-16T04:43:10.852Z,7.77
2022-11-16T04:48:14.066Z,7.79
2022-11-16T04:53:16.269Z,7.76
2022-11-16T04:58:18.258Z,7.84
2022-11-16T05:03:20.241Z,7.71
2022-11-16T05:08:22.241Z,7.80
2022-11-16T05:13:24.225Z,7.78
2022-11-16T05:18:26.230Z,7.78
2022-11-16T05:23:46.844Z,7.78
2022-11-16T05:28:49.018Z,7.83
2022-11-16T05:33:51.009Z,7.85
2022-11-16T05:38:56.260Z,7.77
2022-11-16T05:43:58.521Z,7.84
2022-11-16T05:49:00.682Z,7.77
2022-11-16T05:54:04.037Z,7.83
2022-11-16T05:59:06.749Z,7.82
2022-11-16T06:04:09.458Z,7.86
2022-11-16T06:09:12.515Z,7.88
2022-11-16T06:14:14.524Z,7.87
2022-11-16T06:19:16.530Z,7.78
2022-11-16T06:24:18.504Z,7.84
2022-11-16T06:29:20.647Z,7.84
2022-11-16T06:34:22.626Z,7.93
2022-11-16T06:39:24.646Z,7.94
2022-11-16T06:44:26.660Z,7.98
2022-11-16T06:49:28.807Z,7.92
2022-11-16T06:54:30.809Z,8.03
2022-11-16T06:59:32.824Z,7.96
2022-11-16T07:04:34.828Z,8.02
2022-11-16T07:09:36.842Z,8.00
2022-11-16T07:14:38.949Z,8.04
2022-11-16T07:19:40.991Z,8.14
2022-11-16T07:24:43.031Z,8.14
2022-11-16T07:29:45.029Z,8.09
2022-11-16T07:34:47.031Z,8.11
2022-11-16T07:39:49.030Z,8.09
2022-11-16T07:44:51.089Z,8.09
2022-11-16T07:49:53.119Z,8.13
2022-11-16T07:54:55.109Z,8.17
2022-11-16T07:59:57.160Z,8.23
2022-11-16T08:04:59.148Z,8.25
2022-11-16T08:10:01.988Z,8.29
2022-11-16T08:15:04.433Z,8.34
2022-11-16T08:20:08.325Z,8.34
2022-11-16T08:25:11.033Z,8.34
2022-11-16T08:30:13.437Z,8.36
2022-11-16T08:35:15.562Z,8.32
2022-11-16T08:40:17.751Z,8.38
2022-11-16T08:45:19.758Z,8.46
2022-11-16T08:50:21.794Z,8.40
2022-11-16T08:55:24.898Z,8.50
2022-11-16T09:00:26.885Z,8.53
2022-11-16T09:05:29.335Z,8.58
2022-11-16T09:10:31.542Z,8.57
2022-11-16T09:15:33.527Z,8.59
2022-11-16T09:20:35.680Z,8.60
2022-11-16T09:25:37.679Z,8.62
2022-11-16T09:36:07.212Z,8.67
2022-11-16T09:41:15.161Z,8.67
2022-11-16T09:46:26.721Z,8.75
2022-11-16T09:51:33.665Z,8.77
2022-11-16T09:56:40.057Z,8.82
2022-11-16T10:01:46.996Z,8.74
2022-11-16T10:07:08.084Z,8.71
2022-11-16T10:12:16.662Z,8.77
2022-11-16T10:17:46.256Z,8.79
2022-11-16T10:23:00.683Z,8.83
2022-11-16T10:28:05.685Z,8.75
2022-11-16T10:33:12.780Z,8.87
2022-11-16T10:38:22.333Z,8.88
2022-11-16T10:43:28.461Z,8.88
2022-11-16T10:48:41.193Z,8.87
2022-11-16T10:53:44.255Z,8.96
2022-11-16T11:05:08.031Z,8.93
2022-11-16T11:10:42.717Z,8.87
2022-11-16T11:15:44.997Z,9.02
2022-11-16T11:20:52.474Z,8.98
2022-11-16T11:25:57.760Z,8.98
2022-11-16T11:31:04.258Z,9.02
2022-11-16T11:36:09.604Z,8.97
2022-11-16T11:41:19.044Z,8.83
2022-11-16T11:46:50.194Z,8.92
2022-11-16T11:51:52.189Z,8.92
2022-11-16T11:56:54.555Z,8.89
2022-11-16T12:02:04.150Z,8.90
2022-11-16T12:07:09.182Z,8.89
2022-11-16T12:12:39.085Z,9.02
2022-11-16T12:17:55.145Z,9.02
2022-11-16T12:23:03.942Z,9.00
2022-11-16T12:28:28.438Z,8.92
2022-11-16T12:34:24.265Z,8.98
2022-11-16T12:39:44.389Z,8.99
2022-11-16T12:45:07.890Z,8.95
2022-11-16T12:50:50.185Z,9.06
2022-11-16T12:56:10.540Z,9.07
2022-11-16T13:01:40.388Z,9.10
2022-11-16T13:07:10.891Z,9.09
2022-11-16T13:12:17.287Z,9.12
2022-11-16T13:17:22.872Z,9.08
2022-11-16T13:22:28.780Z,8.99
2022-11-16T13:27:41.294Z,8.91
2022-11-16T13:32:47.753Z,8.87
2022-11-16T13:37:52.095Z,8.93
2022-11-16T13:43:04.902Z,8.95
2022-11-16T13:48:21.197Z,8.93
2022-11-16T13:58:55.678Z,8.81
2022-11-16T14:04:34.391Z,8.80
2022-11-16T14:09:44.108Z,8.83
2022-11-16T14:15:14.614Z,8.80
2022-11-16T14:20:24.708Z,8.83
2022-11-16T14:25:37.376Z,8.77
2022-11-16T14:31:25.871Z,8.83
2022-11-16T14:36:38.654Z,8.82
2022-11-16T14:41:44.723Z,8.81
2022-11-16T14:46:46.895Z,8.83
2022-11-16T14:51:55.830Z,8.71
2022-11-16T14:57:17.788Z,8.77
2022-11-16T15:02:23.348Z,8.80
2022-11-16T15:07:28.548Z,8.77
2022-11-16T15:12:42.557Z,8.72
2022-11-16T15:17:51.990Z,8.70
2022-11-16T15:22:58.759Z,8.76
2022-11-16T15:28:05.220Z,8.69
2022-11-16T15:33:15.609Z,8.70
2022-11-16T15:38:19.995Z,8.68
2022-11-16T15:43:26.483Z,8.66
2022-11-16T15:48:29.842Z,8.55
2022-11-16T15:53:41.688Z,8.62
2022-11-16T15:58:44.652Z,8.61
2022-11-16T16:03:54.390Z,8.61
2022-11-16T16:09:06.622Z,8.54
2022-11-16T16:14:10.915Z,8.52
2022-11-16T16:19:32.539Z,8.55
2022-11-16T16:24:46.126Z,8.56
2022-11-16T16:29:50.163Z,8.58
2022-11-16T16:34:57.493Z,8.50
2022-11-16T16:40:00.140Z,8.56
2022-11-16T16:45:02.488Z,8.49
2022-11-16T16:50:04.821Z,8.49
2022-11-16T16:55:07.134Z,8.54
2022-11-16T17:00:11.161Z,8.49
2022-11-16T17:05:13.225Z,8.48
2022-11-16T17:10:15.891Z,8.55
2022-11-16T17:15:19.445Z,8.55
2022-11-16T17:20:21.717Z,8.46
2022-11-16T17:25:23.809Z,8.55
2022-11-16T17:30:25.818Z,8.57
2022-11-16T17:35:27.859Z,8.56
2022-11-16T17:40:29.876Z,8.57
2022-11-16T17:45:32.187Z,8.58
2022-11-16T17:50:34.204Z,8.51
2022-11-16T17:55:37.538Z,8.57
2022-11-16T18:00:39.535Z,8.47
2022-11-16T18:05:41.617Z,8.52
2022-11-16T18:10:43.987Z,8.46
2022-11-16T18:15:45.958Z,8.49
2022-11-16T18:20:50.802Z,8.48
2022-11-16T18:25:53.272Z,8.45
2022-11-16T18:31:09.829Z,8.48
2022-11-16T18:36:12.657Z,8.40
2022-11-16T18:41:16.587Z,8.44
2022-11-16T18:46:23.760Z,8.46
2022-11-16T18:51:27.443Z,8.45
2022-11-16T18:56:29.611Z,8.39
2022-11-16T19:01:31.696Z,8.43
2022-11-16T19:06:33.798Z,8.50
2022-11-16T19:11:36.086Z,8.48
2022-11-16T19:16:43.403Z,8.47
2022-11-16T19:21:49.431Z,8.49
2022-11-16T19:26:52.057Z,8.43
2022-11-16T19:31:54.091Z,8.47
2022-11-16T19:36:56.088Z,8.47
2022-11-16T19:41:58.088Z,8.45
2022-11-16T19:47:00.417Z,8.46
2022-11-16T19:52:02.404Z,8.47
2022-11-16T19:57:04.491Z,8.39
2022-11-16T20:02:06.499Z,8.47
2022-11-16T20:07:09.744Z,8.41
2022-11-16T20:12:11.853Z,8.38
2022-11-16T20:17:13.906Z,8.39
2022-11-16T20:22:16.773Z,8.39
2022-11-16T20:27:19.110Z,8.41
2022-11-16T20:32:21.160Z,8.47
2022-11-16T20:37:23.175Z,8.44
2022-11-16T20:42:25.276Z,8.42
2022-11-16T20:47:27.362Z,8.42
2022-11-16T20:52:29.370Z,8.43
2022-11-16T20:57:31.462Z,8.40
2022-11-16T21:02:33.522Z,8.34
2022-11-16T21:07:35.738Z,8.40
2022-11-16T21:12:56.157Z,8.32
2022-11-16T21:17:58.720Z,8.40
